x

Nanakwa Shoal (46181) Wave Buoy

11:00am - Sun 30th Aug 2015 All times are PDT. -7 hours from GMT.

  • Sig Wave height 0.7ft
  • Peak Period 2s
  • Wind
    13mph, 18mph gusts
  • Sea Temp 58°f
  • Air Temp 59°f
  • Sea Pressure 997.2mb
  • Nanakwa Shoal
  • Nanakwa Shoal

More Historic Weather Station data

Upgrade to MSW Pro to gain access to the past 30 days of data for over 8000 Wavebouys and Weather Stations around the globe.

Join Pro

Comparision Forecast

View Surf forecast
   
Sun 08/30 11:00am 0.7ft 2s 13 18 mph 997.2mb 58f 59f
10:00am 0.7ft 2s 13 16 mph 998.1mb 58f 57f
9:00am 0.7ft 2s 16 22 mph 998.3mb 58f 56f
8:00am 0.3ft 2s 9 16 mph 998.1mb 58f 56f
7:00am 0.7ft 3s 11 13 mph 997.8mb 58f 56f
6:00am 0.3ft 2s 7 9 mph 997.6mb 58f 56f
5:00am 0.3ft 2s 7 13 mph 997.5mb 58f 56f
4:00am 0.3ft 2s 11 13 mph 997.2mb 58f 55f
3:00am 0.3ft 2s 11 13 mph 997mb 58f 55f
2:00am 0.3ft 2s 11 18 mph 997mb 58f 56f
1:00am 0.3ft 2s 11 13 mph 996.6mb 58f 56f
12:00am 0.3ft 2s 13 22 mph 996mb 59f 57f
Sat 08/29 11:00pm 0.3ft 2s 13 16 mph 995.7mb 59f 56f
10:00pm 0.3ft 2s 11 13 mph 995.2mb 59f 56f
9:00pm 0.7ft 2s 11 13 mph 994.8mb 60f 56f
8:00pm 0.3ft 2s 16 20 mph 993.9mb 60f 57f
7:00pm 0.3ft 2s 11 13 mph 992.8mb 60f 57f
6:00pm 0.3ft 2s 13
mph
991.6mb 60f 57f
5:00pm 0.3ft 7s 4 9 mph 990.6mb 60f 58f
4:00pm 0.3ft 2s 7 9 mph 990mb 60f 58f
3:00pm 0.3ft 2s 7 9 mph 989.7mb 60f 58f
2:00pm 0.3ft 2s 11 13 mph 989.3mb 60f 58f
1:00pm 0.3ft 2s 4 9 mph 990.1mb 60f 57f
12:00pm 0.3ft 2s 9 11 mph 990.4mb 59f 57f
11:00am 0.3ft 2s 9 11 mph 991mb 59f 58f
10:00am 0.3ft 2s 9 13 mph 992.2mb 59f 57f
9:00am 0.7ft 2s 11 13 mph 993.8mb 59f 57f
8:00am 0.7ft 2s 16 20 mph 995mb 59f 56f
7:00am 0.3ft 2s 13 18 mph 996.6mb 59f 56f
6:00am 0.3ft 2s 11 13 mph 997.6mb 59f 56f
5:00am 0.3ft 2s 9
mph
998.5mb 59f 57f
4:00am  -  6s 4 9 mph 999.6mb 60f 57f
3:00am  -  6s 4 9 mph 1000.3mb 59f 57f
2:00am  -  6s 4 7 mph 1001mb 59f 56f
1:00am  -  6s 2 4 mph 1001.7mb 59f 57f
12:00am  -  6s 2
mph
1002.1mb 59f 56f
Fri 08/28 11:00pm  -  6s 2 4 mph 1002.6mb 59f 57f
10:00pm  -  6s 4 9 mph 1003mb 59f 57f
9:00pm  -  7s 2 4 mph 1003.4mb 58f 57f
8:00pm 0.3ft 7s  -  2 mph 1003.4mb 59f 59f
7:00pm 0.3ft 2s 4 7 mph 1003.5mb 59f 59f
6:00pm 0.3ft 2s 9 13 mph 1004mb 59f 59f
5:00pm 0.3ft 2s 7 11 mph 1004mb 58f 60f
4:00pm 0.3ft 2s 7 9 mph 1004.2mb 59f 59f
3:00pm 0.3ft 2s 13 18 mph 1003.8mb 58f 58f
2:00pm 0.3ft 2s 11 16 mph 1003.7mb 58f 61f
1:00pm 0.3ft 2s 11 16 mph 1003.8mb 59f 61f
12:00pm 0.3ft 2s 7 11 mph 1004.5mb 58f 60f
11:00am 0.3ft 2s 18 20 mph 1003.9mb 58f 58f
10:00am 0.3ft 2s 9 11 mph 1003.9mb 58f 57f
9:00am 0.3ft 2s 9 11 mph 1004.1mb 58f 57f
8:00am 0.3ft 2s 9 13 mph 1004.1mb 57f 57f
7:00am 0.7ft 2s 13 16 mph 1004.4mb 58f 57f
6:00am 0.3ft 2s 18 20 mph 1004.3mb 58f 58f
5:00am 0.3ft 2s 16 18 mph 1005.2mb 58f 59f
4:00am 0.3ft 2s 11 13 mph 1005.9mb 58f 60f
3:00am 0.3ft 2s 13
mph
1006.7mb 59f 60f
2:00am 0.3ft 2s 13 16 mph 1007.4mb 59f 61f
1:00am 0.3ft 2s 13 18 mph 1008.1mb 59f 61f
12:00am 0.3ft 2s 13 18 mph 1008.8mb 57f 61f
Thu 08/27 11:00pm 0.3ft 2s 13 16 mph 1009.8mb 56f 60f
10:00pm 0.3ft 2s 13 16 mph 1010.6mb 56f 60f
9:00pm 0.3ft 2s 13 16 mph 1011.5mb 57f 62f
8:00pm 0.3ft 2s 13 16 mph 1012.3mb 60f 62f
7:00pm 0.7ft 2s 16 22 mph 1012.6mb 61f 66f
6:00pm 0.7ft 2s 20 25 mph 1013mb 61f 67f
5:00pm 0.7ft 3s 20 27 mph 1013.3mb 62f 67f
4:00pm 0.7ft 3s 18 25 mph 1013.8mb 62f 68f
3:00pm 0.7ft 2s 20 25 mph 1014mb 62f 67f
2:00pm 1ft 3s 18 20 mph 1014.4mb 62f 67f
1:00pm 0.7ft 2s 18 22 mph 1014.8mb 62f 66f
12:00pm  -  2s 13 18 mph 1015.1mb 62f 64f
11:00am  -  2s 9
mph
1015.7mb 61f 59f
10:00am  -  6s 4 7 mph 1016.2mb 60f 58f
9:00am  -  6s 2
mph
1016.4mb 60f 58f
8:00am  -  6s  -  4 mph 1016.7mb 60f 58f
7:00am  -  6s 4
mph
1016.6mb 59f 58f
6:00am  -  6s 2 4 mph 1016.3mb 59f 58f
5:00am  -  6s 2 4 mph 1016.4mb 60f 58f
4:00am  -  5s 2 4 mph 1016.5mb 59f 58f
3:00am  -  6s 2 4 mph 1016.3mb 60f 58f
2:00am  -  5s  -  2 mph 1016mb 60f 59f
1:00am  -  5s 2
mph
1016.2mb 61f 60f
12:00am  -  5s  -  2 mph 1016.2mb 61f 60f
Wed 08/26 11:00pm 0.3ft 4s  -  2 mph 1016.1mb 61f 61f
10:00pm  -  4s 4
mph
1016.1mb 62f 61f
9:00pm  -  5s  -  2 mph 1016mb 62f 62f
8:00pm  -  2s 2
mph
1015.9mb 64f 64f